sensor_id;sensor_type;location;lat;lon;timestamp;temperature;humidity
23471;DHT22;11908;50.806;4.424;2022-09-28T00:00:53;10.50;99.90
23471;DHT22;11908;50.806;4.424;2022-09-28T00:03:19;10.60;99.90
23471;DHT22;11908;50.806;4.424;2022-09-28T00:05:45;10.60;99.90
23471;DHT22;11908;50.806;4.424;2022-09-28T00:08:11;10.60;99.90
23471;DHT22;11908;50.806;4.424;2022-09-28T00:10:37;10.50;99.90
23471;DHT22;11908;50.806;4.424;2022-09-28T00:13:03;10.40;99.90
23471;DHT22;11908;50.806;4.424;2022-09-28T00:15:32;10.30;99.90
23471;DHT22;11908;50.806;4.424;2022-09-28T00:17:57;10.30;99.90
23471;DHT22;11908;50.806;4.424;2022-09-28T00:20:23;10.30;99.90
23471;DHT22;11908;50.806;4.424;2022-09-28T00:22:49;10.30;99.90
23471;DHT22;11908;50.806;4.424;2022-09-28T00:25:14;10.30;99.90
23471;DHT22;11908;50.806;4.424;2022-09-28T00:27:41;10.20;99.90
23471;DHT22;11908;50.806;4.424;2022-09-28T00:30:08;10.20;99.90
23471;DHT22;11908;50.806;4.424;2022-09-28T00:32:34;10.20;99.90
23471;DHT22;11908;50.806;4.424;2022-09-28T00:34:59;10.20;99.90
23471;DHT22;11908;50.806;4.424;2022-09-28T00:37:25;10.20;99.90
23471;DHT22;11908;50.806;4.424;2022-09-28T00:39:50;10.10;99.90
23471;DHT22;11908;50.806;4.424;2022-09-28T00:42:22;10.10;99.90
23471;DHT22;11908;50.806;4.424;2022-09-28T00:44:56;10.10;99.90
23471;DHT22;11908;50.806;4.424;2022-09-28T00:50:25;10.20;99.90
23471;DHT22;11908;50.806;4.424;2022-09-28T00:52:57;10.30;99.90
23471;DHT22;11908;50.806;4.424;2022-09-28T00:55:47;10.40;99.90
23471;DHT22;11908;50.806;4.424;2022-09-28T00:58:17;10.30;99.90
23471;DHT22;11908;50.806;4.424;2022-09-28T01:00:44;10.40;99.90
23471;DHT22;11908;50.806;4.424;2022-09-28T01:03:10;10.50;99.90
23471;DHT22;11908;50.806;4.424;2022-09-28T01:05:38;10.50;99.90
23471;DHT22;11908;50.806;4.424;2022-09-28T01:08:04;10.40;99.90
23471;DHT22;11908;50.806;4.424;2022-09-28T01:10:32;10.50;99.90
23471;DHT22;11908;50.806;4.424;2022-09-28T01:12:58;10.50;99.90
23471;DHT22;11908;50.806;4.424;2022-09-28T01:15:26;10.70;99.90
23471;DHT22;11908;50.806;4.424;2022-09-28T01:18:05;10.70;99.90
23471;DHT22;11908;50.806;4.424;2022-09-28T01:21:18;10.60;99.90
23471;DHT22;11908;50.806;4.424;2022-09-28T01:26:40;10.60;99.90
23471;DHT22;11908;50.806;4.424;2022-09-28T01:32:22;10.70;99.90
23471;DHT22;11908;50.806;4.424;2022-09-28T01:37:43;10.50;99.90
23471;DHT22;11908;50.806;4.424;2022-09-28T01:40:11;10.40;99.90
23471;DHT22;11908;50.806;4.424;2022-09-28T01:42:39;10.40;99.90
23471;DHT22;11908;50.806;4.424;2022-09-28T01:45:13;10.40;99.90
23471;DHT22;11908;50.806;4.424;2022-09-28T01:47:42;10.30;99.90
23471;DHT22;11908;50.806;4.424;2022-09-28T01:50:13;10.40;99.90
23471;DHT22;11908;50.806;4.424;2022-09-28T01:52:58;10.40;99.90
23471;DHT22;11908;50.806;4.424;2022-09-28T01:55:31;10.40;99.90
23471;DHT22;11908;50.806;4.424;2022-09-28T01:58:05;10.50;99.90
23471;DHT22;11908;50.806;4.424;2022-09-28T02:00:35;10.50;99.90
23471;DHT22;11908;50.806;4.424;2022-09-28T02:03:16;10.40;99.90
23471;DHT22;11908;50.806;4.424;2022-09-28T02:05:52;10.40;99.90
23471;DHT22;11908;50.806;4.424;2022-09-28T02:08:27;10.40;99.90
23471;DHT22;11908;50.806;4.424;2022-09-28T02:13:46;10.50;99.90
23471;DHT22;11908;50.806;4.424;2022-09-28T02:16:28;10.40;99.90
23471;DHT22;11908;50.806;4.424;2022-09-28T02:18:55;10.30;99.90
23471;DHT22;11908;50.806;4.424;2022-09-28T02:24:56;10.40;99.90
23471;DHT22;11908;50.806;4.424;2022-09-28T02:27:34;10.50;99.90
23471;DHT22;11908;50.806;4.424;2022-09-28T02:30:04;10.60;99.90
23471;DHT22;11908;50.806;4.424;2022-09-28T02:32:31;10.70;99.90
23471;DHT22;11908;50.806;4.424;2022-09-28T02:34:58;10.70;99.90
23471;DHT22;11908;50.806;4.424;2022-09-28T02:37:25;10.60;99.90
23471;DHT22;11908;50.806;4.424;2022-09-28T02:39:51;10.60;99.90
23471;DHT22;11908;50.806;4.424;2022-09-28T02:42:22;10.60;99.90
23471;DHT22;11908;50.806;4.424;2022-09-28T02:50:29;10.20;99.90
23471;DHT22;11908;50.806;4.424;2022-09-28T02:58:18;10.20;99.90
23471;DHT22;11908;50.806;4.424;2022-09-28T03:03:49;10.10;99.90
23471;DHT22;11908;50.806;4.424;2022-09-28T03:06:36;10.00;99.90
23471;DHT22;11908;50.806;4.424;2022-09-28T03:09:21;10.00;99.90
23471;DHT22;11908;50.806;4.424;2022-09-28T03:11:52;10.10;99.90
23471;DHT22;11908;50.806;4.424;2022-09-28T03:14:18;10.10;99.90
23471;DHT22;11908;50.806;4.424;2022-09-28T03:16:45;10.10;99.90
23471;DHT22;11908;50.806;4.424;2022-09-28T03:19:15;10.10;99.90
23471;DHT22;11908;50.806;4.424;2022-09-28T03:21:41;10.00;99.90
23471;DHT22;11908;50.806;4.424;2022-09-28T03:24:07;10.00;99.90
23471;DHT22;11908;50.806;4.424;2022-09-28T03:26:38;10.00;99.90
23471;DHT22;11908;50.806;4.424;2022-09-28T03:29:04;10.00;99.90
23471;DHT22;11908;50.806;4.424;2022-09-28T03:31:30;10.00;99.90
23471;DHT22;11908;50.806;4.424;2022-09-28T03:33:56;10.00;99.90
23471;DHT22;11908;50.806;4.424;2022-09-28T03:36:22;10.10;99.90
23471;DHT22;11908;50.806;4.424;2022-09-28T03:38:50;10.20;99.90
23471;DHT22;11908;50.806;4.424;2022-09-28T03:41:15;10.20;99.90
23471;DHT22;11908;50.806;4.424;2022-09-28T03:43:41;10.10;99.90
23471;DHT22;11908;50.806;4.424;2022-09-28T03:46:07;10.10;99.90
23471;DHT22;11908;50.806;4.424;2022-09-28T03:48:34;10.20;99.90
23471;DHT22;11908;50.806;4.424;2022-09-28T03:51:03;10.20;99.90
23471;DHT22;11908;50.806;4.424;2022-09-28T03:53:29;10.20;99.90
23471;DHT22;11908;50.806;4.424;2022-09-28T03:55:55;10.10;99.90
23471;DHT22;11908;50.806;4.424;2022-09-28T03:58:22;10.00;99.90
23471;DHT22;11908;50.806;4.424;2022-09-28T04:00:48;9.90;99.90
23471;DHT22;11908;50.806;4.424;2022-09-28T04:03:14;9.90;99.90
23471;DHT22;11908;50.806;4.424;2022-09-28T04:05:48;9.80;99.90
23471;DHT22;11908;50.806;4.424;2022-09-28T04:08:14;9.70;99.90
23471;DHT22;11908;50.806;4.424;2022-09-28T04:10:40;9.60;99.90
23471;DHT22;11908;50.806;4.424;2022-09-28T04:13:05;9.50;99.90
23471;DHT22;11908;50.806;4.424;2022-09-28T04:15:31;9.40;99.90
23471;DHT22;11908;50.806;4.424;2022-09-28T04:17:57;9.40;99.90
23471;DHT22;11908;50.806;4.424;2022-09-28T04:20:22;9.30;99.90
23471;DHT22;11908;50.806;4.424;2022-09-28T04:22:48;9.20;99.90
23471;DHT22;11908;50.806;4.424;2022-09-28T04:25:13;9.20;99.90
23471;DHT22;11908;50.806;4.424;2022-09-28T04:27:39;9.20;99.90
23471;DHT22;11908;50.806;4.424;2022-09-28T04:30:23;9.20;99.90
23471;DHT22;11908;50.806;4.424;2022-09-28T04:32:49;9.20;99.90
23471;DHT22;11908;50.806;4.424;2022-09-28T04:35:14;9.20;99.90
23471;DHT22;11908;50.806;4.424;2022-09-28T04:37:40;9.10;99.90
23471;DHT22;11908;50.806;4.424;2022-09-28T04:40:06;9.00;99.90
23471;DHT22;11908;50.806;4.424;2022-09-28T04:42:32;8.90;99.90
23471;DHT22;11908;50.806;4.424;2022-09-28T04:44:58;8.90;99.90
23471;DHT22;11908;50.806;4.424;2022-09-28T04:47:25;8.90;99.90
23471;DHT22;11908;50.806;4.424;2022-09-28T04:49:51;9.00;99.90
23471;DHT22;11908;50.806;4.424;2022-09-28T04:52:17;9.00;99.90
23471;DHT22;11908;50.806;4.424;2022-09-28T04:54:42;9.10;99.90
23471;DHT22;11908;50.806;4.424;2022-09-28T04:57:08;9.10;99.90
23471;DHT22;11908;50.806;4.424;2022-09-28T04:59:33;9.10;99.90
23471;DHT22;11908;50.806;4.424;2022-09-28T05:01:59;9.10;99.90
23471;DHT22;11908;50.806;4.424;2022-09-28T05:04:25;9.20;99.90
23471;DHT22;11908;50.806;4.424;2022-09-28T05:06:50;9.10;99.90
23471;DHT22;11908;50.806;4.424;2022-09-28T05:09:16;9.10;99.90
23471;DHT22;11908;50.806;4.424;2022-09-28T05:11:42;9.20;99.90
23471;DHT22;11908;50.806;4.424;2022-09-28T05:14:09;9.20;99.90
23471;DHT22;11908;50.806;4.424;2022-09-28T05:16:35;9.10;99.90
23471;DHT22;11908;50.806;4.424;2022-09-28T05:19:00;9.00;99.90
23471;DHT22;11908;50.806;4.424;2022-09-28T05:21:26;9.10;99.90
23471;DHT22;11908;50.806;4.424;2022-09-28T05:23:53;9.10;99.90
23471;DHT22;11908;50.806;4.424;2022-09-28T05:26:21;9.10;99.90
23471;DHT22;11908;50.806;4.424;2022-09-28T05:28:47;9.10;99.90
23471;DHT22;11908;50.806;4.424;2022-09-28T05:31:13;9.10;99.90
23471;DHT22;11908;50.806;4.424;2022-09-28T05:33:39;9.00;99.90
23471;DHT22;11908;50.806;4.424;2022-09-28T05:36:08;9.00;99.90
23471;DHT22;11908;50.806;4.424;2022-09-28T05:38:35;9.00;99.90
23471;DHT22;11908;50.806;4.424;2022-09-28T05:41:00;8.90;99.90
23471;DHT22;11908;50.806;4.424;2022-09-28T05:43:26;8.80;99.90
23471;DHT22;11908;50.806;4.424;2022-09-28T05:45:51;8.80;99.90
23471;DHT22;11908;50.806;4.424;2022-09-28T05:48:17;8.90;99.90
23471;DHT22;11908;50.806;4.424;2022-09-28T05:50:43;8.80;99.90
23471;DHT22;11908;50.806;4.424;2022-09-28T05:53:09;8.80;99.90
23471;DHT22;11908;50.806;4.424;2022-09-28T05:55:36;8.80;99.90
23471;DHT22;11908;50.806;4.424;2022-09-28T05:58:04;8.80;99.90
23471;DHT22;11908;50.806;4.424;2022-09-28T06:00:33;8.80;99.90
23471;DHT22;11908;50.806;4.424;2022-09-28T06:03:03;8.80;99.90
23471;DHT22;11908;50.806;4.424;2022-09-28T06:05:29;8.90;99.90
23471;DHT22;11908;50.806;4.424;2022-09-28T06:07:58;9.00;99.90
23471;DHT22;11908;50.806;4.424;2022-09-28T06:10:25;9.10;99.90
23471;DHT22;11908;50.806;4.424;2022-09-28T06:12:55;9.10;99.90
23471;DHT22;11908;50.806;4.424;2022-09-28T06:15:22;9.30;99.90
23471;DHT22;11908;50.806;4.424;2022-09-28T06:18:01;9.40;99.90
23471;DHT22;11908;50.806;4.424;2022-09-28T06:20:30;9.40;99.90
23471;DHT22;11908;50.806;4.424;2022-09-28T06:22:57;9.50;99.90
23471;DHT22;11908;50.806;4.424;2022-09-28T06:25:23;9.70;99.90
23471;DHT22;11908;50.806;4.424;2022-09-28T06:27:58;9.60;99.90
23471;DHT22;11908;50.806;4.424;2022-09-28T06:30:25;9.80;99.90
23471;DHT22;11908;50.806;4.424;2022-09-28T06:32:55;9.80;99.90
23471;DHT22;11908;50.806;4.424;2022-09-28T06:35:23;9.80;99.90
23471;DHT22;11908;50.806;4.424;2022-09-28T06:37:49;9.90;99.90
23471;DHT22;11908;50.806;4.424;2022-09-28T06:40:15;10.10;99.90
23471;DHT22;11908;50.806;4.424;2022-09-28T06:42:41;10.10;99.90
23471;DHT22;11908;50.806;4.424;2022-09-28T06:45:07;10.20;99.90
23471;DHT22;11908;50.806;4.424;2022-09-28T06:47:33;10.20;99.90
23471;DHT22;11908;50.806;4.424;2022-09-28T06:49:59;10.30;99.90
23471;DHT22;11908;50.806;4.424;2022-09-28T06:52:25;10.20;99.90
23471;DHT22;11908;50.806;4.424;2022-09-28T06:54:51;10.30;99.90
23471;DHT22;11908;50.806;4.424;2022-09-28T06:57:17;10.40;99.90
23471;DHT22;11908;50.806;4.424;2022-09-28T06:59:43;10.60;99.90
23471;DHT22;11908;50.806;4.424;2022-09-28T07:02:10;10.60;99.90
23471;DHT22;11908;50.806;4.424;2022-09-28T07:04:40;10.70;99.90
23471;DHT22;11908;50.806;4.424;2022-09-28T07:07:08;10.70;99.90
23471;DHT22;11908;50.806;4.424;2022-09-28T07:09:34;10.90;99.90
23471;DHT22;11908;50.806;4.424;2022-09-28T07:12:01;10.80;99.90
23471;DHT22;11908;50.806;4.424;2022-09-28T07:14:31;10.80;99.90
23471;DHT22;11908;50.806;4.424;2022-09-28T07:16:57;10.70;99.90
23471;DHT22;11908;50.806;4.424;2022-09-28T07:19:22;10.70;99.90
23471;DHT22;11908;50.806;4.424;2022-09-28T07:21:50;10.70;99.90
23471;DHT22;11908;50.806;4.424;2022-09-28T07:24:17;10.70;99.90
23471;DHT22;11908;50.806;4.424;2022-09-28T07:26:42;10.80;99.90
23471;DHT22;11908;50.806;4.424;2022-09-28T07:29:10;10.90;99.90
23471;DHT22;11908;50.806;4.424;2022-09-28T07:31:36;10.70;99.90
23471;DHT22;11908;50.806;4.424;2022-09-28T07:34:01;10.60;99.90
23471;DHT22;11908;50.806;4.424;2022-09-28T07:36:28;10.60;99.90
23471;DHT22;11908;50.806;4.424;2022-09-28T07:38:54;10.60;99.90
23471;DHT22;11908;50.806;4.424;2022-09-28T07:41:20;10.50;99.90
23471;DHT22;11908;50.806;4.424;2022-09-28T07:43:57;10.70;99.90
23471;DHT22;11908;50.806;4.424;2022-09-28T07:46:31;10.70;99.90
23471;DHT22;11908;50.806;4.424;2022-09-28T07:48:57;10.50;99.90
23471;DHT22;11908;50.806;4.424;2022-09-28T07:51:23;10.50;99.90
23471;DHT22;11908;50.806;4.424;2022-09-28T07:53:48;10.60;99.90
23471;DHT22;11908;50.806;4.424;2022-09-28T07:56:14;10.70;99.90
23471;DHT22;11908;50.806;4.424;2022-09-28T07:58:42;10.80;99.90
23471;DHT22;11908;50.806;4.424;2022-09-28T08:01:09;10.80;99.90
23471;DHT22;11908;50.806;4.424;2022-09-28T08:03:36;11.00;99.90
23471;DHT22;11908;50.806;4.424;2022-09-28T08:06:04;11.10;99.90
23471;DHT22;11908;50.806;4.424;2022-09-28T08:08:32;11.30;99.90
23471;DHT22;11908;50.806;4.424;2022-09-28T08:10:58;11.50;99.90
23471;DHT22;11908;50.806;4.424;2022-09-28T08:13:24;11.90;99.90
23471;DHT22;11908;50.806;4.424;2022-09-28T08:15:51;12.30;99.90
23471;DHT22;11908;50.806;4.424;2022-09-28T08:18:18;12.90;99.90
23471;DHT22;11908;50.806;4.424;2022-09-28T08:20:44;13.10;99.90
23471;DHT22;11908;50.806;4.424;2022-09-28T08:23:28;13.70;99.90
23471;DHT22;11908;50.806;4.424;2022-09-28T08:25:53;14.30;99.90
23471;DHT22;11908;50.806;4.424;2022-09-28T08:28:20;15.00;99.90
23471;DHT22;11908;50.806;4.424;2022-09-28T08:30:47;16.30;99.90
23471;DHT22;11908;50.806;4.424;2022-09-28T08:33:14;17.00;99.90
23471;DHT22;11908;50.806;4.424;2022-09-28T08:35:40;18.10;99.90
23471;DHT22;11908;50.806;4.424;2022-09-28T08:38:07;18.50;99.90
23471;DHT22;11908;50.806;4.424;2022-09-28T08:41:05;18.90;99.90
23471;DHT22;11908;50.806;4.424;2022-09-28T08:46:12;19.40;99.90
23471;DHT22;11908;50.806;4.424;2022-09-28T08:48:53;18.70;99.90
23471;DHT22;11908;50.806;4.424;2022-09-28T08:51:35;18.40;99.90
23471;DHT22;11908;50.806;4.424;2022-09-28T08:54:14;17.60;99.90
23471;DHT22;11908;50.806;4.424;2022-09-28T08:56:51;17.40;99.90
23471;DHT22;11908;50.806;4.424;2022-09-28T08:59:25;17.80;99.90
23471;DHT22;11908;50.806;4.424;2022-09-28T09:02:00;17.60;99.90
23471;DHT22;11908;50.806;4.424;2022-09-28T09:04:28;16.40;99.90
23471;DHT22;11908;50.806;4.424;2022-09-28T09:12:13;15.50;99.90
23471;DHT22;11908;50.806;4.424;2022-09-28T09:19:54;15.90;99.90
23471;DHT22;11908;50.806;4.424;2022-09-28T09:25:41;16.30;99.90
23471;DHT22;11908;50.806;4.424;2022-09-28T09:28:38;16.90;99.90
23471;DHT22;11908;50.806;4.424;2022-09-28T09:44:36;21.40;99.90
23471;DHT22;11908;50.806;4.424;2022-09-28T09:47:21;22.20;99.90
23471;DHT22;11908;50.806;4.424;2022-09-28T09:52:44;23.80;99.90
23471;DHT22;11908;50.806;4.424;2022-09-28T09:55:35;24.10;99.90
23471;DHT22;11908;50.806;4.424;2022-09-28T09:58:33;23.30;99.90
23471;DHT22;11908;50.806;4.424;2022-09-28T10:01:21;22.20;99.90
23471;DHT22;11908;50.806;4.424;2022-09-28T10:03:50;20.60;99.90
23471;DHT22;11908;50.806;4.424;2022-09-28T10:06:25;20.00;99.90
23471;DHT22;11908;50.806;4.424;2022-09-28T10:09:04;19.90;99.90
23471;DHT22;11908;50.806;4.424;2022-09-28T10:11:34;20.50;99.90
23471;DHT22;11908;50.806;4.424;2022-09-28T10:14:01;20.70;99.90
23471;DHT22;11908;50.806;4.424;2022-09-28T10:16:28;21.80;99.90
23471;DHT22;11908;50.806;4.424;2022-09-28T10:18:54;22.60;99.90
23471;DHT22;11908;50.806;4.424;2022-09-28T10:21:20;23.40;99.90
23471;DHT22;11908;50.806;4.424;2022-09-28T10:23:52;21.90;99.90
23471;DHT22;11908;50.806;4.424;2022-09-28T10:26:23;21.10;99.90
23471;DHT22;11908;50.806;4.424;2022-09-28T10:29:04;20.10;99.90
23471;DHT22;11908;50.806;4.424;2022-09-28T10:31:48;19.10;99.90
23471;DHT22;11908;50.806;4.424;2022-09-28T10:34:16;18.80;99.90
23471;DHT22;11908;50.806;4.424;2022-09-28T10:36:52;19.20;99.90
23471;DHT22;11908;50.806;4.424;2022-09-28T10:39:51;18.70;99.90
23471;DHT22;11908;50.806;4.424;2022-09-28T10:42:28;18.20;99.90
23471;DHT22;11908;50.806;4.424;2022-09-28T10:45:20;17.70;99.90
23471;DHT22;11908;50.806;4.424;2022-09-28T10:47:46;17.20;99.90
23471;DHT22;11908;50.806;4.424;2022-09-28T10:50:38;17.20;99.90
23471;DHT22;11908;50.806;4.424;2022-09-28T10:53:18;18.00;99.90
23471;DHT22;11908;50.806;4.424;2022-09-28T10:55:57;19.60;99.90
23471;DHT22;11908;50.806;4.424;2022-09-28T10:58:37;20.00;99.90
23471;DHT22;11908;50.806;4.424;2022-09-28T11:01:19;20.80;99.90
23471;DHT22;11908;50.806;4.424;2022-09-28T11:03:54;21.30;99.90
23471;DHT22;11908;50.806;4.424;2022-09-28T11:06:28;21.90;99.90
23471;DHT22;11908;50.806;4.424;2022-09-28T11:08:57;22.90;99.90
23471;DHT22;11908;50.806;4.424;2022-09-28T11:11:24;22.50;99.90
23471;DHT22;11908;50.806;4.424;2022-09-28T11:13:53;22.10;99.90
23471;DHT22;11908;50.806;4.424;2022-09-28T11:18:49;20.40;99.90
23471;DHT22;11908;50.806;4.424;2022-09-28T11:21:18;20.10;99.90
23471;DHT22;11908;50.806;4.424;2022-09-28T11:24:16;19.70;99.90
23471;DHT22;11908;50.806;4.424;2022-09-28T11:26:45;19.70;99.90
23471;DHT22;11908;50.806;4.424;2022-09-28T11:29:36;19.50;99.90
23471;DHT22;11908;50.806;4.424;2022-09-28T11:32:04;19.30;99.90
23471;DHT22;11908;50.806;4.424;2022-09-28T11:34:36;19.20;99.90
23471;DHT22;11908;50.806;4.424;2022-09-28T11:39:45;18.70;99.90
23471;DHT22;11908;50.806;4.424;2022-09-28T11:50:25;18.60;99.90
23471;DHT22;11908;50.806;4.424;2022-09-28T11:52:56;19.10;99.90
23471;DHT22;11908;50.806;4.424;2022-09-28T11:55:33;19.60;99.90
23471;DHT22;11908;50.806;4.424;2022-09-28T11:58:30;20.10;99.90
23471;DHT22;11908;50.806;4.424;2022-09-28T12:01:34;20.30;99.90
23471;DHT22;11908;50.806;4.424;2022-09-28T12:04:20;19.90;99.90
23471;DHT22;11908;50.806;4.424;2022-09-28T12:07:05;20.10;99.90
23471;DHT22;11908;50.806;4.424;2022-09-28T12:09:42;19.50;99.90
23471;DHT22;11908;50.806;4.424;2022-09-28T12:18:05;18.70;99.90
23471;DHT22;11908;50.806;4.424;2022-09-28T12:20:41;20.20;99.90
23471;DHT22;11908;50.806;4.424;2022-09-28T12:23:14;22.40;99.90
23471;DHT22;11908;50.806;4.424;2022-09-28T12:25:57;22.40;99.90
23471;DHT22;11908;50.806;4.424;2022-09-28T12:28:40;21.20;99.90
23471;DHT22;11908;50.806;4.424;2022-09-28T12:31:19;20.20;99.90
23471;DHT22;11908;50.806;4.424;2022-09-28T12:33:49;19.20;99.90
23471;DHT22;11908;50.806;4.424;2022-09-28T12:36:29;18.70;99.90
23471;DHT22;11908;50.806;4.424;2022-09-28T12:49:55;16.50;99.90
23471;DHT22;11908;50.806;4.424;2022-09-28T13:00:21;15.20;99.90
23471;DHT22;11908;50.806;4.424;2022-09-28T13:06:15;15.20;99.90
23471;DHT22;11908;50.806;4.424;2022-09-28T13:12:23;15.50;99.90
23471;DHT22;11908;50.806;4.424;2022-09-28T13:25:17;16.30;99.90
23471;DHT22;11908;50.806;4.424;2022-09-28T13:27:50;16.50;99.90
23471;DHT22;11908;50.806;4.424;2022-09-28T13:30:17;16.60;99.90
23471;DHT22;11908;50.806;4.424;2022-09-28T13:32:44;16.50;99.90
23471;DHT22;11908;50.806;4.424;2022-09-28T13:35:16;16.60;99.90
23471;DHT22;11908;50.806;4.424;2022-09-28T13:37:45;16.50;99.90
23471;DHT22;11908;50.806;4.424;2022-09-28T13:40:11;16.30;99.90
23471;DHT22;11908;50.806;4.424;2022-09-28T13:53:54;16.10;99.90
23471;DHT22;11908;50.806;4.424;2022-09-28T13:56:56;15.90;99.90
23471;DHT22;11908;50.806;4.424;2022-09-28T13:59:28;15.90;99.90
23471;DHT22;11908;50.806;4.424;2022-09-28T14:04:58;15.70;99.90
23471;DHT22;11908;50.806;4.424;2022-09-28T14:14:58;15.20;99.90
23471;DHT22;11908;50.806;4.424;2022-09-28T14:25:21;14.90;99.90
23471;DHT22;11908;50.806;4.424;2022-09-28T14:27:59;15.00;99.90
23471;DHT22;11908;50.806;4.424;2022-09-28T14:30:46;15.20;99.90
23471;DHT22;11908;50.806;4.424;2022-09-28T14:33:28;15.40;99.90
23471;DHT22;11908;50.806;4.424;2022-09-28T14:35:59;15.60;99.90
23471;DHT22;11908;50.806;4.424;2022-09-28T14:38:47;15.60;99.90
23471;DHT22;11908;50.806;4.424;2022-09-28T14:41:38;15.50;99.90
23471;DHT22;11908;50.806;4.424;2022-09-28T14:44:12;15.50;99.90
23471;DHT22;11908;50.806;4.424;2022-09-28T14:48:02;15.50;99.90
23471;DHT22;11908;50.806;4.424;2022-09-28T14:50:00;15.50;99.90
23471;DHT22;11908;50.806;4.424;2022-09-28T14:52:46;15.60;99.90
23471;DHT22;11908;50.806;4.424;2022-09-28T14:55:16;15.40;99.90
23471;DHT22;11908;50.806;4.424;2022-09-28T14:57:42;15.40;99.90
23471;DHT22;11908;50.806;4.424;2022-09-28T15:00:19;15.40;99.90
23471;DHT22;11908;50.806;4.424;2022-09-28T15:02:48;15.50;99.90
23471;DHT22;11908;50.806;4.424;2022-09-28T15:05:26;15.60;99.90
23471;DHT22;11908;50.806;4.424;2022-09-28T15:07:54;15.80;99.90
23471;DHT22;11908;50.806;4.424;2022-09-28T15:10:30;15.80;99.90
23471;DHT22;11908;50.806;4.424;2022-09-28T15:13:21;15.80;99.90
23471;DHT22;11908;50.806;4.424;2022-09-28T15:15:51;15.90;99.90
23471;DHT22;11908;50.806;4.424;2022-09-28T15:18:42;16.00;99.90
23471;DHT22;11908;50.806;4.424;2022-09-28T15:21:11;16.10;99.90
23471;DHT22;11908;50.806;4.424;2022-09-28T15:23:40;16.10;99.90
23471;DHT22;11908;50.806;4.424;2022-09-28T15:26:27;16.30;99.90
23471;DHT22;11908;50.806;4.424;2022-09-28T15:28:54;16.40;99.90
23471;DHT22;11908;50.806;4.424;2022-09-28T15:31:22;16.20;99.90
23471;DHT22;11908;50.806;4.424;2022-09-28T15:33:48;16.20;99.90
23471;DHT22;11908;50.806;4.424;2022-09-28T15:36:43;16.20;99.90
23471;DHT22;11908;50.806;4.424;2022-09-28T15:39:20;16.40;99.90
23471;DHT22;11908;50.806;4.424;2022-09-28T15:41:49;16.30;99.90
23471;DHT22;11908;50.806;4.424;2022-09-28T15:46:42;16.10;99.90
23471;DHT22;11908;50.806;4.424;2022-09-28T15:49:26;15.90;99.90
23471;DHT22;11908;50.806;4.424;2022-09-28T15:51:56;15.50;99.90
23471;DHT22;11908;50.806;4.424;2022-09-28T15:54:30;15.30;99.90
23471;DHT22;11908;50.806;4.424;2022-09-28T15:57:01;15.20;99.90
23471;DHT22;11908;50.806;4.424;2022-09-28T15:59:33;15.10;99.90
23471;DHT22;11908;50.806;4.424;2022-09-28T16:04:56;14.90;99.90
23471;DHT22;11908;50.806;4.424;2022-09-28T16:07:27;14.70;99.90
23471;DHT22;11908;50.806;4.424;2022-09-28T16:10:01;14.60;99.90
23471;DHT22;11908;50.806;4.424;2022-09-28T16:12:43;14.50;99.90
23471;DHT22;11908;50.806;4.424;2022-09-28T16:15:13;14.40;99.90
23471;DHT22;11908;50.806;4.424;2022-09-28T16:18:32;14.50;99.90
23471;DHT22;11908;50.806;4.424;2022-09-28T16:20:35;14.50;99.90
23471;DHT22;11908;50.806;4.424;2022-09-28T16:23:25;14.50;99.90
23471;DHT22;11908;50.806;4.424;2022-09-28T16:26:02;14.50;99.90
23471;DHT22;11908;50.806;4.424;2022-09-28T16:31:15;14.20;99.90
23471;DHT22;11908;50.806;4.424;2022-09-28T16:36:18;14.20;99.90
23471;DHT22;11908;50.806;4.424;2022-09-28T16:38:45;14.20;99.90
23471;DHT22;11908;50.806;4.424;2022-09-28T16:41:16;14.10;99.90
23471;DHT22;11908;50.806;4.424;2022-09-28T16:43:44;14.10;99.90
23471;DHT22;11908;50.806;4.424;2022-09-28T16:46:12;14.10;99.90
23471;DHT22;11908;50.806;4.424;2022-09-28T16:48:46;14.20;99.90
23471;DHT22;11908;50.806;4.424;2022-09-28T16:51:18;14.10;99.90
23471;DHT22;11908;50.806;4.424;2022-09-28T16:53:44;14.10;99.90
23471;DHT22;11908;50.806;4.424;2022-09-28T16:56:29;14.00;99.90
23471;DHT22;11908;50.806;4.424;2022-09-28T16:58:56;13.80;99.90
23471;DHT22;11908;50.806;4.424;2022-09-28T17:01:24;13.70;99.90
23471;DHT22;11908;50.806;4.424;2022-09-28T17:03:50;13.60;99.90
23471;DHT22;11908;50.806;4.424;2022-09-28T17:06:21;13.70;99.90
23471;DHT22;11908;50.806;4.424;2022-09-28T17:08:51;13.60;99.90
23471;DHT22;11908;50.806;4.424;2022-09-28T17:11:18;13.50;99.90
23471;DHT22;11908;50.806;4.424;2022-09-28T17:13:45;13.50;99.90
23471;DHT22;11908;50.806;4.424;2022-09-28T17:16:18;13.30;99.90
23471;DHT22;11908;50.806;4.424;2022-09-28T17:18:45;13.30;99.90
23471;DHT22;11908;50.806;4.424;2022-09-28T17:21:16;13.20;99.90
23471;DHT22;11908;50.806;4.424;2022-09-28T17:23:43;13.10;99.90
23471;DHT22;11908;50.806;4.424;2022-09-28T17:28:44;12.80;99.90
23471;DHT22;11908;50.806;4.424;2022-09-28T17:31:14;12.70;99.90
23471;DHT22;11908;50.806;4.424;2022-09-28T17:33:40;12.80;99.90
23471;DHT22;11908;50.806;4.424;2022-09-28T17:36:09;12.60;99.90
23471;DHT22;11908;50.806;4.424;2022-09-28T17:38:37;12.50;99.90
23471;DHT22;11908;50.806;4.424;2022-09-28T17:41:03;12.50;99.90
23471;DHT22;11908;50.806;4.424;2022-09-28T17:43:28;12.40;99.90
23471;DHT22;11908;50.806;4.424;2022-09-28T17:45:54;12.30;99.90
23471;DHT22;11908;50.806;4.424;2022-09-28T17:48:20;12.20;99.90
23471;DHT22;11908;50.806;4.424;2022-09-28T17:50:48;12.10;99.90
23471;DHT22;11908;50.806;4.424;2022-09-28T17:53:16;12.10;99.90
23471;DHT22;11908;50.806;4.424;2022-09-28T17:55:41;12.10;99.90
23471;DHT22;11908;50.806;4.424;2022-09-28T17:58:16;12.00;99.90
23471;DHT22;11908;50.806;4.424;2022-09-28T18:00:42;11.90;99.90
23471;DHT22;11908;50.806;4.424;2022-09-28T18:03:21;11.90;99.90
23471;DHT22;11908;50.806;4.424;2022-09-28T18:06:04;11.80;99.90
23471;DHT22;11908;50.806;4.424;2022-09-28T18:08:31;11.90;99.90
23471;DHT22;11908;50.806;4.424;2022-09-28T18:10:58;11.80;99.90
23471;DHT22;11908;50.806;4.424;2022-09-28T18:13:24;11.60;99.90
23471;DHT22;11908;50.806;4.424;2022-09-28T18:15:51;11.50;99.90
23471;DHT22;11908;50.806;4.424;2022-09-28T18:18:17;11.50;99.90
23471;DHT22;11908;50.806;4.424;2022-09-28T18:20:43;11.50;99.90
23471;DHT22;11908;50.806;4.424;2022-09-28T18:23:08;11.40;99.90
23471;DHT22;11908;50.806;4.424;2022-09-28T18:25:38;11.30;99.90
23471;DHT22;11908;50.806;4.424;2022-09-28T18:28:04;11.20;99.90
23471;DHT22;11908;50.806;4.424;2022-09-28T18:30:29;11.20;99.90
23471;DHT22;11908;50.806;4.424;2022-09-28T18:32:55;11.10;99.90
23471;DHT22;11908;50.806;4.424;2022-09-28T18:35:21;11.00;99.90
23471;DHT22;11908;50.806;4.424;2022-09-28T18:37:47;11.00;99.90
23471;DHT22;11908;50.806;4.424;2022-09-28T18:40:14;11.00;99.90